Time;durP1;ratioP1;P1;durP2;ratioP2;P2;SDS_P1;SDS_P2;PMS_P1;PMS_P2;Temp;Humidity;BMP_temperature;BMP_pressure;BME280_temperature;BME280_humidity;BME280_pressure;Samples;Min_cycle;Max_cycle;Signal;HPM_P1;HPM_P2
2022/09/27 00:00:41;;;;;;;5.88;1.92;;;;;;;12.95;83.62;98137.75;5053923;28;20043;-89
2022/09/27 00:03:11;;;;;;;3.30;2.05;;;;;;;12.96;83.68;98125.25;5070603;28;20044;-89
2022/09/27 00:05:39;;;;;;;4.28;2.05;;;;;;;12.97;83.85;98130.34;5070600;28;20111;-89
2022/09/27 00:08:06;;;;;;;3.63;1.75;;;;;;;12.95;83.46;98128.91;5083656;28;20043;-89
2022/09/27 00:10:33;;;;;;;8.43;2.30;;;;;;;12.98;83.09;98133.88;5068581;28;20157;-89
2022/09/27 00:12:59;;;;;;;4.85;2.03;;;;;;;12.95;82.02;98132.41;5056700;28;20044;-89
2022/09/27 00:15:26;;;;;;;6.40;1.85;;;;;;;12.92;82.85;98132.78;5071591;28;20044;-87
2022/09/27 00:17:53;;;;;;;6.82;1.80;;;;;;;12.90;82.97;98124.19;5064851;28;20076;-85
2022/09/27 00:20:20;;;;;;;7.95;2.53;;;;;;;12.91;82.79;98123.16;5040599;28;20093;-84
2022/09/27 00:22:47;;;;;;;4.78;1.90;;;;;;;12.86;82.77;98122.91;5069081;28;20540;-85
2022/09/27 00:25:16;;;;;;;6.80;1.55;;;;;;;12.89;82.44;98122.50;5059177;28;20039;-89
2022/09/27 00:27:42;;;;;;;4.25;1.45;;;;;;;12.89;82.65;98121.69;5077388;28;20048;-85
2022/09/27 00:30:10;;;;;;;3.33;1.90;;;;;;;12.85;82.92;98115.94;5055438;28;20131;-85
2022/09/27 00:32:37;;;;;;;4.05;1.63;;;;;;;12.91;82.08;98109.00;5083172;28;20051;-86
2022/09/27 00:35:04;;;;;;;7.00;1.95;;;;;;;12.86;83.00;98100.78;5073741;28;20448;-86
2022/09/27 00:37:31;;;;;;;3.42;1.70;;;;;;;12.88;82.56;98112.06;5058536;28;20124;-85
2022/09/27 00:39:57;;;;;;;3.97;1.30;;;;;;;12.87;82.75;98097.91;5053785;28;20131;-85
2022/09/27 00:42:24;;;;;;;3.63;1.30;;;;;;;12.89;82.61;98095.06;5037103;28;20047;-88
2022/09/27 00:45:06;;;;;;;2.95;1.40;;;;;;;12.82;82.36;98097.66;5079607;28;20045;-85
2022/09/27 00:47:40;;;;;;;2.05;1.15;;;;;;;12.84;82.62;98090.28;5068992;28;20044;-88
2022/09/27 00:50:27;;;;;;;3.30;1.38;;;;;;;12.75;81.71;98088.81;5056434;28;20922;-88
2022/09/27 00:53:05;;;;;;;3.00;1.17;;;;;;;12.79;82.58;98077.56;5069951;28;20128;-89
2022/09/27 00:55:35;;;;;;;4.13;1.48;;;;;;;12.81;82.65;98074.72;5062358;28;20071;-89
2022/09/27 00:58:03;;;;;;;4.25;1.30;;;;;;;12.85;82.85;98075.13;5058012;28;20387;-89
2022/09/27 01:00:30;;;;;;;3.15;1.15;;;;;;;12.87;82.67;98068.59;5067594;28;20044;-88
2022/09/27 01:02:57;;;;;;;2.08;1.27;;;;;;;12.87;82.40;98076.59;5055517;28;20067;-85
2022/09/27 01:05:26;;;;;;;3.67;1.20;;;;;;;12.88;82.08;98064.94;5071281;28;20736;-88
2022/09/27 01:07:55;;;;;;;3.13;1.20;;;;;;;12.82;82.41;98071.88;5049324;28;20070;-85
2022/09/27 01:10:24;;;;;;;2.05;1.33;;;;;;;12.87;81.61;98068.59;5052375;28;20540;-86
2022/09/27 01:13:06;;;;;;;3.90;1.55;;;;;;;12.84;82.28;98071.66;5040525;28;20102;-86
2022/09/27 01:15:45;;;;;;;3.05;1.50;;;;;;;12.74;82.59;98071.16;5072422;28;20096;-86
2022/09/27 01:18:28;;;;;;;2.70;1.50;;;;;;;12.77;82.65;98062.78;5086265;28;20584;-89
2022/09/27 01:21:12;;;;;;;1.75;1.55;;;;;;;12.70;82.91;98064.59;5068032;28;20047;-88
2022/09/27 01:23:45;;;;;;;10.68;1.63;;;;;;;12.84;82.88;98065.50;5067368;28;20043;-86
2022/09/27 01:26:28;;;;;;;2.25;1.30;;;;;;;12.75;82.73;98062.19;5074329;28;20147;-86
2022/09/27 01:28:58;;;;;;;4.70;1.77;;;;;;;12.82;82.87;98061.22;5083764;28;20071;-86
2022/09/27 01:31:53;;;;;;;3.90;1.60;;;;;;;12.75;82.56;98056.84;5089085;28;20105;-85
2022/09/27 01:34:43;;;;;;;3.97;1.60;;;;;;;12.78;82.59;98057.28;5054775;28;20063;-87
2022/09/27 01:37:33;;;;;;;2.30;1.30;;;;;;;12.82;82.29;98061.22;5055897;28;20503;-87
2022/09/27 01:40:17;;;;;;;4.40;1.70;;;;;;;12.70;83.06;98056.59;5013836;28;20048;-87
2022/09/27 01:42:59;;;;;;;3.20;1.77;;;;;;;12.73;83.19;98046.38;5081124;28;20044;-88
2022/09/27 01:45:38;;;;;;;3.13;2.05;;;;;;;12.74;83.54;98040.03;5071188;28;20044;-87
2022/09/27 01:48:15;;;;;;;3.75;1.50;;;;;;;12.84;82.96;98041.53;5041230;28;20147;-88
2022/09/27 01:51:13;;;;;;;2.60;1.85;;;;;;;12.68;83.72;98046.13;5059007;28;20044;-88
2022/09/27 01:53:43;;;;;;;4.25;1.77;;;;;;;12.86;82.06;98050.97;5054226;28;20042;-87
2022/09/27 01:56:47;;;;;;;3.75;1.50;;;;;;;12.82;81.95;98065.69;5065072;28;20046;-83
2022/09/27 01:59:28;;;;;;;4.75;1.58;;;;;;;12.75;82.85;98049.69;5042364;28;20052;-85
2022/09/27 02:02:13;;;;;;;5.28;2.10;;;;;;;12.80;82.90;98049.91;5058293;28;20052;-85
2022/09/27 02:05:18;;;;;;;2.65;2.10;;;;;;;12.86;82.25;98052.81;5043320;28;20113;-85
2022/09/27 02:07:52;;;;;;;2.47;1.92;;;;;;;12.88;81.62;98050.78;5000562;28;20050;-89
2022/09/27 02:10:23;;;;;;;3.97;2.13;;;;;;;12.82;82.20;98045.22;5053048;28;20524;-89
2022/09/27 02:13:02;;;;;;;3.97;2.10;;;;;;;12.82;81.98;98055.88;5056300;28;20035;-91
2022/09/27 02:15:33;;;;;;;2.78;2.13;;;;;;;12.82;81.90;98053.22;5061344;28;20053;-85
2022/09/27 02:18:23;;;;;;;3.00;2.20;;;;;;;12.81;81.69;98048.88;5070343;28;20502;-88
2022/09/27 02:20:54;;;;;;;5.00;2.05;;;;;;;12.75;82.48;98064.84;5052559;28;20043;-87
2022/09/27 02:23:59;;;;;;;4.78;2.08;;;;;;;12.68;82.22;98064.78;5074080;28;20475;-89
2022/09/27 02:26:34;;;;;;;3.10;1.80;;;;;;;12.76;81.94;98061.16;5061228;28;20051;-85
2022/09/27 02:29:01;;;;;;;4.22;1.92;;;;;;;12.75;82.76;98073.66;5070647;28;20079;-85
2022/09/27 02:31:33;;;;;;;8.10;2.40;;;;;;;12.75;82.50;98073.66;5083814;28;20048;-89
2022/09/27 02:34:33;;;;;;;5.20;1.80;;;;;;;12.64;82.31;98076.81;5061051;28;20363;-85
2022/09/27 02:36:59;;;;;;;5.93;2.30;;;;;;;12.72;82.68;98068.72;5018680;28;20036;-84
2022/09/27 02:39:27;;;;;;;7.53;2.05;;;;;;;12.72;82.67;98078.50;5058444;28;20046;-90
2022/09/27 02:42:02;;;;;;;5.63;1.95;;;;;;;12.74;82.69;98077.31;5063013;28;20059;-91
2022/09/27 02:44:30;;;;;;;7.80;2.13;;;;;;;12.73;82.61;98086.31;5082150;28;20119;-88
2022/09/27 02:47:21;;;;;;;7.78;2.47;;;;;;;12.60;82.64;98083.56;5075860;28;20043;-91
2022/09/27 02:49:51;;;;;;;5.85;2.15;;;;;;;12.70;82.20;98088.56;5090319;28;20140;-84
2022/09/27 02:53:07;;;;;;;6.03;2.35;;;;;;;12.66;82.53;98080.13;5105988;28;20498;-84
2022/09/27 02:55:43;;;;;;;6.55;2.30;;;;;;;12.72;82.24;98082.03;5070500;28;20395;-85
2022/09/27 02:58:38;;;;;;;6.82;2.55;;;;;;;12.71;82.22;98090.19;5071514;28;20392;-85
2022/09/27 03:01:34;;;;;;;8.00;2.80;;;;;;;12.66;81.83;98088.09;5070246;28;20490;-85
2022/09/27 03:04:17;;;;;;;12.43;2.63;;;;;;;12.59;82.12;98090.72;5055699;28;20044;-85
2022/09/27 03:06:46;;;;;;;7.97;2.35;;;;;;;12.72;81.27;98083.84;5107251;28;20130;-85
2022/09/27 03:09:24;;;;;;;7.05;2.75;;;;;;;12.64;81.38;98089.31;5077199;28;20078;-84
2022/09/27 03:11:52;;;;;;;6.38;2.30;;;;;;;12.73;81.14;98086.31;5069457;28;20051;-84
2022/09/27 03:14:18;;;;;;;15.20;3.78;;;;;;;12.68;81.32;98083.41;5084600;28;20036;-88
2022/09/27 03:16:58;;;;;;;4.43;2.20;;;;;;;12.73;81.24;98088.16;5039464;28;20055;-87
2022/09/27 03:19:44;;;;;;;5.53;2.58;;;;;;;12.69;81.71;98090.38;5084586;28;20371;-85
2022/09/27 03:22:39;;;;;;;10.32;3.03;;;;;;;12.69;81.63;98095.69;5067630;28;20578;-85
2022/09/27 03:25:07;;;;;;;8.05;3.10;;;;;;;12.74;81.26;98090.63;5071569;28;20046;-92
2022/09/27 03:27:35;;;;;;;7.68;3.00;;;;;;;12.75;81.21;98100.28;5060215;28;20359;-90
2022/09/27 03:30:02;;;;;;;7.07;2.55;;;;;;;12.72;80.59;98098.00;5085794;28;20040;-84
2022/09/27 03:32:30;;;;;;;7.68;2.70;;;;;;;12.70;80.83;98097.38;5057903;28;20036;-83
2022/09/27 03:35:15;;;;;;;14.48;3.58;;;;;;;12.70;80.59;98100.03;5082803;28;20039;-84
2022/09/27 03:37:42;;;;;;;12.10;2.70;;;;;;;12.66;81.37;98095.28;5035508;28;20052;-84
2022/09/27 03:40:09;;;;;;;5.18;2.72;;;;;;;12.65;81.42;98088.31;5103617;28;20039;-83
2022/09/27 03:42:37;;;;;;;10.80;2.92;;;;;;;12.67;81.27;98097.75;5035405;28;20483;-82
2022/09/27 03:45:05;;;;;;;7.25;2.90;;;;;;;12.66;81.45;98092.63;5052221;28;20048;-84
2022/09/27 03:47:31;;;;;;;12.32;3.13;;;;;;;12.65;81.35;98093.63;5080117;28;20043;-92
2022/09/27 03:49:59;;;;;;;8.05;4.07;;;;;;;12.65;81.56;98097.13;5068714;28;20052;-85
2022/09/27 03:52:26;;;;;;;10.85;3.70;;;;;;;12.67;81.19;98102.25;5052906;28;20138;-90
2022/09/27 03:54:53;;;;;;;7.78;3.67;;;;;;;12.68;81.17;98107.38;5062340;28;20093;-83
2022/09/27 03:57:25;;;;;;;10.55;3.33;;;;;;;12.62;81.66;98094.00;5073448;28;20050;-83
2022/09/27 03:59:52;;;;;;;5.68;3.22;;;;;;;12.65;81.03;98107.78;5052193;28;20105;-83
2022/09/27 04:02:42;;;;;;;6.07;3.17;;;;;;;12.57;81.50;98113.22;5075006;28;20067;-83
2022/09/27 04:05:36;;;;;;;7.78;2.88;;;;;;;12.60;81.57;98105.69;5083587;28;20062;-84
2022/09/27 04:08:07;;;;;;;6.40;2.92;;;;;;;12.57;81.90;98099.91;5075496;28;20044;-84
2022/09/27 04:10:35;;;;;;;8.88;4.40;;;;;;;12.59;81.63;98101.38;5066438;28;20077;-83
2022/09/27 04:13:02;;;;;;;8.15;3.15;;;;;;;12.62;81.52;98109.97;5054984;28;20056;-88
2022/09/27 04:15:34;;;;;;;8.63;3.13;;;;;;;12.60;81.51;98111.00;5070648;28;20055;-88
2022/09/27 04:18:20;;;;;;;7.72;3.40;;;;;;;12.61;81.08;98106.50;5085187;28;20133;-83
2022/09/27 04:21:05;;;;;;;8.95;3.40;;;;;;;12.60;80.83;98113.66;5088999;28;20127;-84
2022/09/27 04:23:35;;;;;;;11.18;3.40;;;;;;;12.58;81.11;98110.38;5059336;28;20079;-85
2022/09/27 04:26:02;;;;;;;8.32;3.63;;;;;;;12.53;81.00;98114.63;5036179;28;20044;-90
2022/09/27 04:29:02;;;;;;;7.50;3.17;;;;;;;12.55;81.19;98112.59;5062355;28;20070;-85
2022/09/27 04:31:30;;;;;;;9.13;3.83;;;;;;;12.56;81.27;98108.91;5068947;28;20135;-88
2022/09/27 04:34:09;;;;;;;11.60;3.33;;;;;;;12.54;81.08;98114.44;5070304;28;20514;-89
2022/09/27 04:36:36;;;;;;;12.35;3.55;;;;;;;12.56;80.66;98117.72;5052843;28;20043;-87
2022/09/27 04:39:30;;;;;;;10.13;3.15;;;;;;;12.54;80.47;98117.09;5076529;28;20052;-87
2022/09/27 04:41:56;;;;;;;9.45;3.60;;;;;;;12.62;80.25;98118.81;5059005;28;20044;-87
2022/09/27 04:44:23;;;;;;;12.45;3.78;;;;;;;12.60;79.86;98120.84;5071779;28;20482;-79
2022/09/27 04:46:50;;;;;;;11.60;3.20;;;;;;;12.56;80.16;98128.34;5080941;28;20063;-79
2022/09/27 04:49:17;;;;;;;7.15;3.05;;;;;;;12.52;80.64;98142.28;5087957;28;20073;-79
2022/09/27 04:51:44;;;;;;;7.68;3.85;;;;;;;12.48;81.07;98141.81;5069768;28;20044;-79
2022/09/27 04:54:11;;;;;;;11.23;4.07;;;;;;;12.43;81.73;98136.22;5073658;28;20093;-79
2022/09/27 04:56:47;;;;;;;6.47;4.38;;;;;;;12.41;81.64;98140.91;5072286;28;20040;-86
2022/09/27 04:59:14;;;;;;;9.63;3.80;;;;;;;12.42;81.74;98160.38;5089053;28;20122;-86
2022/09/27 05:01:41;;;;;;;9.48;3.08;;;;;;;12.36;81.20;98161.94;5055551;28;20056;-85
2022/09/27 05:04:08;;;;;;;9.68;2.78;;;;;;;12.37;81.07;98171.59;5087040;28;20433;-79
2022/09/27 05:06:38;;;;;;;7.25;2.88;;;;;;;12.40;81.25;98170.41;5065263;28;20501;-85
2022/09/27 05:09:14;;;;;;;7.72;3.05;;;;;;;12.41;80.81;98172.03;5095282;28;20450;-84
2022/09/27 05:11:49;;;;;;;5.78;2.60;;;;;;;12.41;81.08;98178.16;5047763;28;20055;-79
2022/09/27 05:14:15;;;;;;;7.80;3.45;;;;;;;12.42;80.87;98185.16;5102178;28;20044;-79
2022/09/27 05:17:02;;;;;;;8.13;3.15;;;;;;;12.40;81.36;98189.03;5056650;28;20066;-80
2022/09/27 05:19:46;;;;;;;10.27;3.22;;;;;;;12.40;81.25;98189.03;5071292;28;20424;-79
2022/09/27 05:22:39;;;;;;;9.43;3.20;;;;;;;12.35;82.04;98184.25;5049030;28;20050;-80
2022/09/27 05:25:07;;;;;;;6.88;3.38;;;;;;;12.38;81.71;98194.53;5075189;28;20048;-84
2022/09/27 05:27:33;;;;;;;9.82;3.53;;;;;;;12.38;81.51;98203.31;5074384;28;20044;-84
2022/09/27 05:30:00;;;;;;;10.00;3.45;;;;;;;12.37;81.72;98207.03;5106563;28;20048;-83
2022/09/27 05:32:41;;;;;;;8.05;4.05;;;;;;;12.37;81.62;98208.84;5075904;28;20506;-83
2022/09/27 05:35:23;;;;;;;9.38;3.80;;;;;;;12.34;81.86;98211.91;5084925;28;20057;-84
2022/09/27 05:37:57;;;;;;;9.32;4.10;;;;;;;12.31;82.26;98220.22;5101090;28;20040;-83
2022/09/27 05:40:28;;;;;;;13.85;4.15;;;;;;;12.34;81.97;98211.91;5085352;28;20052;-83
2022/09/27 05:43:08;;;;;;;15.10;4.30;;;;;;;12.36;81.72;98226.66;5080165;28;20052;-83
2022/09/27 05:45:34;;;;;;;12.52;5.13;;;;;;;12.38;81.36;98229.94;5080900;28;20085;-83
2022/09/27 05:48:04;;;;;;;8.60;4.22;;;;;;;12.44;80.74;98232.88;5087214;28;20048;-84
2022/09/27 05:50:35;;;;;;;11.15;4.28;;;;;;;12.42;80.76;98238.41;5071006;28;20044;-84
2022/09/27 05:53:02;;;;;;;8.45;4.07;;;;;;;12.44;80.80;98243.53;5054066;28;20039;-79
2022/09/27 05:55:29;;;;;;;14.52;3.85;;;;;;;12.46;80.74;98252.97;5067109;28;20067;-85
2022/09/27 05:58:04;;;;;;;8.38;5.20;;;;;;;12.36;81.44;98242.66;5103469;28;20046;-86
2022/09/27 06:00:42;;;;;;;9.18;4.25;;;;;;;12.43;81.14;98253.34;5077319;28;20128;-86
2022/09/27 06:03:29;;;;;;;7.57;3.70;;;;;;;12.42;81.15;98259.69;5073167;28;20043;-85
2022/09/27 06:06:14;;;;;;;9.82;4.03;;;;;;;12.43;80.79;98252.53;5088047;28;20059;-79
2022/09/27 06:08:48;;;;;;;13.33;3.60;;;;;;;12.43;80.81;98260.53;5046697;28;20466;-79
2022/09/27 06:11:17;;;;;;;11.70;3.25;;;;;;;12.45;80.37;98267.31;5093262;28;20436;-78
2022/09/27 06:13:45;;;;;;;7.32;3.55;;;;;;;12.42;80.64;98272.19;5058384;28;20036;-79
2022/09/27 06:16:12;;;;;;;7.40;3.30;;;;;;;12.38;81.13;98272.53;5084720;28;20046;-78
2022/09/27 06:18:43;;;;;;;6.88;3.45;;;;;;;12.38;80.99;98277.88;5065091;28;20712;-78
2022/09/27 06:21:11;;;;;;;11.35;3.90;;;;;;;12.38;80.55;98275.19;5072730;28;20115;-78
2022/09/27 06:23:40;;;;;;;12.60;3.83;;;;;;;12.38;80.58;98285.84;5078789;28;20036;-79
2022/09/27 06:26:13;;;;;;;5.13;2.92;;;;;;;12.32;81.19;98283.13;5092750;28;20590;-83
2022/09/27 06:28:50;;;;;;;8.75;4.43;;;;;;;12.36;80.64;98292.38;5073150;28;20039;-83
2022/09/27 06:31:16;;;;;;;9.27;4.20;;;;;;;12.39;80.22;98286.69;5068895;28;20068;-79
2022/09/27 06:33:50;;;;;;;7.22;3.50;;;;;;;12.40;80.55;98296.31;5057155;28;20131;-78
2022/09/27 06:36:17;;;;;;;10.25;4.22;;;;;;;12.41;80.32;98295.28;5074076;28;20067;-83
2022/09/27 06:38:47;;;;;;;6.45;3.45;;;;;;;12.38;81.22;98299.16;5083435;28;20032;-80
2022/09/27 06:41:22;;;;;;;7.38;3.38;;;;;;;12.39;80.87;98289.34;5051072;28;20041;-82
2022/09/27 06:44:10;;;;;;;7.75;3.47;;;;;;;12.43;81.08;98295.94;5070997;28;20054;-84
2022/09/27 06:46:42;;;;;;;8.68;3.65;;;;;;;12.42;80.86;98296.16;5054252;28;20580;-80
2022/09/27 06:49:39;;;;;;;7.35;2.80;;;;;;;12.43;80.75;98303.13;5069363;28;20048;-80
2022/09/27 06:52:06;;;;;;;4.88;2.90;;;;;;;12.47;80.10;98304.41;5067347;28;20040;-78
2022/09/27 06:54:32;;;;;;;7.57;2.65;;;;;;;12.43;80.43;98308.44;5061788;28;20148;-79
2022/09/27 06:56:59;;;;;;;6.72;3.33;;;;;;;12.45;79.80;98314.41;5080709;28;20044;-80
2022/09/27 07:02:32;;;;;;;;;;;;;;;12.15;80.68;98323.22;5093031;28;20036;-84
2022/09/27 07:05:28;;;;;;;4.78;2.80;;;;;;;12.32;80.27;98323.88;5090529;28;20128;-78
2022/09/27 07:08:11;;;;;;;7.43;4.10;;;;;;;12.36;80.25;98329.63;5061065;28;20456;-78
2022/09/27 07:10:48;;;;;;;10.48;3.53;;;;;;;12.35;80.01;98325.34;5083782;28;20498;-84
2022/09/27 07:13:16;;;;;;;7.03;3.17;;;;;;;12.32;80.18;98328.38;5069011;27;20097;-84
2022/09/27 07:15:43;;;;;;;17.20;6.80;;;;;;;12.34;80.17;98340.47;5072909;28;20135;-85
2022/09/27 07:18:13;;;;;;;10.88;3.97;;;;;;;12.31;80.51;98348.84;5062019;28;20047;-79
2022/09/27 07:20:40;;;;;;;7.65;3.25;;;;;;;12.33;79.74;98341.47;5051007;28;20039;-79
2022/09/27 07:23:08;;;;;;;8.70;3.10;;;;;;;12.35;79.46;98336.81;5063243;28;20055;-79
2022/09/27 07:25:35;;;;;;;6.38;2.75;;;;;;;12.37;79.53;98340.09;5085904;28;20051;-86
2022/09/27 07:28:07;;;;;;;5.40;2.95;;;;;;;12.32;79.59;98345.16;5085868;28;20044;-79
2022/09/27 07:30:34;;;;;;;6.75;3.40;;;;;;;12.32;80.02;98339.84;5082806;28;20043;-79
2022/09/27 07:33:03;;;;;;;13.23;3.55;;;;;;;12.34;80.02;98345.81;5066038;28;20059;-79
2022/09/27 07:35:31;;;;;;;7.05;3.53;;;;;;;12.37;80.06;98353.41;5083219;28;20046;-79
2022/09/27 07:37:58;;;;;;;10.55;2.80;;;;;;;12.36;80.14;98356.25;5083487;28;20051;-78
2022/09/27 07:40:25;;;;;;;7.55;2.88;;;;;;;12.44;79.06;98360.66;5084487;28;20075;-79
2022/09/27 07:42:56;;;;;;;9.60;3.10;;;;;;;12.44;78.73;98363.31;5070113;28;20049;-79
2022/09/27 07:45:24;;;;;;;8.55;3.25;;;;;;;12.43;78.98;98367.81;5084485;28;20069;-79
2022/09/27 07:48:09;;;;;;;6.25;2.97;;;;;;;12.45;78.61;98370.31;5070494;28;20494;-79
2022/09/27 07:50:54;;;;;;;4.78;2.85;;;;;;;12.43;78.56;98365.16;5090588;28;20059;-78
2022/09/27 07:53:53;;;;;;;6.53;2.78;;;;;;;12.40;78.99;98376.19;5064634;28;20058;-79
2022/09/27 07:56:40;;;;;;;6.90;3.35;;;;;;;12.41;79.13;98372.50;5097656;28;20035;-79
2022/09/27 07:59:10;;;;;;;8.65;3.58;;;;;;;12.44;78.59;98380.16;5079066;28;20398;-78
2022/09/27 08:01:38;;;;;;;5.00;3.22;;;;;;;12.45;78.62;98381.78;5070771;28;20096;-84
2022/09/27 08:04:05;;;;;;;9.10;3.58;;;;;;;12.46;78.46;98383.41;5071987;28;20040;-85
2022/09/27 08:06:32;;;;;;;6.72;2.80;;;;;;;12.46;78.65;98402.06;5063340;28;20042;-85
2022/09/27 08:08:59;;;;;;;5.13;2.80;;;;;;;12.47;78.60;98390.41;5087847;28;20046;-84
2022/09/27 08:11:27;;;;;;;9.07;3.10;;;;;;;12.44;78.95;98395.25;5054432;28;20043;-80
2022/09/27 08:13:55;;;;;;;6.55;3.03;;;;;;;12.47;79.01;98406.41;5071508;28;20079;-85
2022/09/27 08:16:27;;;;;;;6.03;2.78;;;;;;;12.49;78.73;98398.19;5093800;28;20043;-85
2022/09/27 08:19:13;;;;;;;6.82;2.80;;;;;;;12.52;78.59;98401.34;5105310;28;20051;-79
2022/09/27 08:22:03;;;;;;;12.35;3.60;;;;;;;12.54;78.59;98411.78;5063841;28;20078;-79
2022/09/27 08:24:37;;;;;;;8.25;2.78;;;;;;;12.58;78.80;98415.75;5085767;28;20027;-79
2022/09/27 08:27:09;;;;;;;9.65;2.72;;;;;;;12.58;78.53;98413.91;5067412;28;20064;-79
2022/09/27 08:29:52;;;;;;;6.30;2.78;;;;;;;12.56;78.68;98413.25;5075512;28;21438;-79
2022/09/27 08:32:19;;;;;;;7.10;2.85;;;;;;;12.60;78.47;98417.22;5088448;28;20096;-78
2022/09/27 08:34:49;;;;;;;6.65;2.38;;;;;;;12.63;78.39;98421.34;5055743;28;20074;-78
2022/09/27 08:37:16;;;;;;;5.20;2.42;;;;;;;12.68;78.51;98423.47;5051472;28;20040;-85
2022/09/27 08:39:43;;;;;;;5.95;2.50;;;;;;;12.70;78.71;98432.94;5088450;28;20044;-79
2022/09/27 08:42:38;;;;;;;11.32;3.53;;;;;;;12.69;78.62;98430.44;5074504;28;20379;-79
2022/09/27 08:45:25;;;;;;;5.90;2.63;;;;;;;12.66;76.91;98423.66;5066160;28;20044;-79
2022/09/27 08:47:55;;;;;;;8.35;3.13;;;;;;;12.77;78.28;98439.19;5076632;28;20043;-79
2022/09/27 08:50:34;;;;;;;5.38;2.17;;;;;;;12.74;77.41;98431.53;5093143;28;20553;-79
2022/09/27 08:53:13;;;;;;;34.03;20.52;;;;;;;12.80;79.05;98427.34;5068510;28;20422;-79
2022/09/27 08:55:48;;;;;;;9.68;3.35;;;;;;;12.83;77.67;98432.28;5072350;28;20040;-79
2022/09/27 08:58:29;;;;;;;6.60;2.90;;;;;;;12.84;78.28;98433.94;5075983;28;20042;-79
2022/09/27 09:01:03;;;;;;;8.97;3.33;;;;;;;12.84;77.92;98433.94;5066999;28;20565;-84
2022/09/27 09:03:43;;;;;;;9.07;2.80;;;;;;;12.81;77.53;98436.97;5070312;28;20457;-84
2022/09/27 09:06:27;;;;;;;11.30;3.17;;;;;;;12.83;77.60;98434.94;5056866;28;20040;-79
2022/09/27 09:09:03;;;;;;;8.75;2.80;;;;;;;12.87;77.59;98435.41;5073284;28;20039;-79
2022/09/27 09:14:36;;;;;;;8.48;2.75;;;;;;;12.81;76.36;98448.44;5075404;28;20056;-84
2022/09/27 09:17:22;;;;;;;6.50;2.60;;;;;;;12.77;76.71;98447.19;5061491;28;20048;-84
2022/09/27 09:20:26;;;;;;;8.85;3.08;;;;;;;12.77;76.99;98455.16;5078711;28;20081;-84
2022/09/27 09:23:12;;;;;;;9.88;3.78;;;;;;;12.79;76.92;98462.97;5071247;28;20036;-83
2022/09/27 09:26:10;;;;;;;8.35;4.10;;;;;;;12.80;76.77;98453.97;5063711;28;20052;-85
2022/09/27 09:29:07;;;;;;;9.45;4.10;;;;;;;12.79;76.59;98462.97;5088382;28;20106;-84
2022/09/27 09:31:37;;;;;;;10.25;3.75;;;;;;;12.89;76.92;98462.69;5084537;28;20048;-84
2022/09/27 09:34:14;;;;;;;7.18;3.45;;;;;;;12.82;76.41;98463.44;5098441;28;20052;-79
2022/09/27 09:36:56;;;;;;;8.93;4.18;;;;;;;12.82;77.01;98459.91;5076292;28;20494;-80
2022/09/27 09:39:27;;;;;;;13.75;4.38;;;;;;;12.91;76.75;98450.84;5068522;28;20074;-80
2022/09/27 09:42:02;;;;;;;5.85;3.47;;;;;;;12.93;77.04;98456.81;5072239;28;20039;-86
2022/09/27 09:44:53;;;;;;;5.97;3.50;;;;;;;12.97;76.46;98446.59;5095559;28;20101;-84
2022/09/27 09:47:30;;;;;;;10.50;3.50;;;;;;;13.07;76.57;98447.13;5064300;28;20101;-83
2022/09/27 09:50:00;;;;;;;8.45;3.65;;;;;;;13.15;76.77;98447.06;5090278;28;20134;-85
2022/09/27 09:52:39;;;;;;;5.97;3.15;;;;;;;13.15;76.36;98448.88;5084379;28;20130;-85
2022/09/27 09:55:17;;;;;;;7.40;3.90;;;;;;;13.19;75.96;98435.00;5086840;28;20051;-86
2022/09/27 09:58:13;;;;;;;9.65;4.55;;;;;;;13.11;73.83;98440.44;5064741;28;20079;-85
2022/09/27 10:00:50;;;;;;;5.82;3.63;;;;;;;13.16;75.62;98435.38;4992940;28;20490;-85
2022/09/27 10:03:18;;;;;;;9.00;3.60;;;;;;;13.20;75.63;98427.81;5051073;28;20080;-85
2022/09/27 10:05:45;;;;;;;9.50;3.60;;;;;;;13.21;75.49;98442.81;5084975;28;20498;-85
2022/09/27 10:08:18;;;;;;;12.63;3.65;;;;;;;13.19;75.17;98436.84;5073119;28;20051;-83
2022/09/27 10:10:47;;;;;;;11.27;4.53;;;;;;;13.19;75.16;98428.84;5072386;28;20348;-80
2022/09/27 10:13:37;;;;;;;16.00;5.13;;;;;;;13.18;75.50;98419.22;5058106;28;20055;-79
2022/09/27 10:16:08;;;;;;;10.77;4.38;;;;;;;13.21;75.48;98414.31;5070344;28;20043;-78
2022/09/27 10:18:38;;;;;;;7.03;3.55;;;;;;;13.22;75.21;98428.47;5058091;28;20125;-79
2022/09/27 10:21:27;;;;;;;11.98;4.10;;;;;;;13.11;74.40;98424.44;5057018;28;20058;-79
2022/09/27 10:24:12;;;;;;;8.95;3.60;;;;;;;13.06;74.42;98448.16;5064438;28;20044;-79
2022/09/27 10:27:04;;;;;;;12.23;5.07;;;;;;;13.07;75.51;98439.13;5077245;28;20051;-79
2022/09/27 10:29:35;;;;;;;13.60;5.07;;;;;;;12.99;76.09;98461.38;5106110;28;20053;-79
2022/09/27 10:32:35;;;;;;;10.35;5.50;;;;;;;12.82;77.33;98450.13;5086541;28;20122;-78
2022/09/27 10:35:27;;;;;;;10.95;5.28;;;;;;;12.82;76.96;98462.59;5097739;28;20052;-78
2022/09/27 10:38:22;;;;;;;18.48;5.43;;;;;;;12.65;77.43;98455.81;5092194;28;20044;-78
2022/09/27 10:40:55;;;;;;;10.25;4.45;;;;;;;12.71;77.80;98458.53;5078529;28;20043;-78
2022/09/27 10:43:31;;;;;;;16.60;4.75;;;;;;;12.66;77.65;98474.25;5070309;28;20071;-78
2022/09/27 10:46:32;;;;;;;15.27;5.53;;;;;;;12.57;77.18;98473.50;5090790;28;20043;-78
2022/09/27 10:49:23;;;;;;;9.65;3.47;;;;;;;12.57;76.49;98460.19;5069848;28;20036;-78
2022/09/27 10:51:56;;;;;;;7.60;2.95;;;;;;;12.54;76.61;98457.06;5090534;28;20058;-78
2022/09/27 10:54:27;;;;;;;4.93;2.65;;;;;;;12.52;76.57;98469.75;5071955;28;20093;-77
2022/09/27 10:57:12;;;;;;;3.20;1.92;;;;;;;12.37;76.05;98478.53;5055415;28;20525;-78
2022/09/27 10:59:42;;;;;;;6.63;1.67;;;;;;;12.32;76.26;98466.78;5100681;28;20044;-78
2022/09/27 11:02:40;;;;;;;5.78;2.53;;;;;;;12.26;75.53;98462.16;5043839;28;20044;-77
2022/09/27 11:05:14;;;;;;;4.68;2.42;;;;;;;12.24;76.48;98462.34;5084585;28;20048;-78
2022/09/27 11:07:53;;;;;;;3.78;2.90;;;;;;;12.18;75.22;98472.88;5083881;28;20054;-78
2022/09/27 11:10:32;;;;;;;8.50;2.58;;;;;;;12.26;76.73;98467.47;5055589;28;20031;-78
2022/09/27 11:13:14;;;;;;;8.77;2.50;;;;;;;12.25;76.51;98466.66;5054646;28;20048;-78
2022/09/27 11:16:11;;;;;;;3.92;2.60;;;;;;;12.29;75.88;98475.94;5081075;28;20036;-78
2022/09/27 11:18:56;;;;;;;7.90;2.50;;;;;;;12.38;77.22;98474.84;5089095;28;20035;-78
2022/09/27 11:22:00;;;;;;;3.90;1.90;;;;;;;12.25;76.76;98471.97;5060807;28;20047;-78
2022/09/27 11:24:31;;;;;;;5.13;1.75;;;;;;;12.41;77.13;98470.16;4991443;28;20051;-78
2022/09/27 11:27:09;;;;;;;5.30;2.30;;;;;;;12.39;78.43;98462.38;5083774;28;20036;-78
2022/09/27 11:29:45;;;;;;;8.18;3.92;;;;;;;12.43;78.81;98462.84;5053761;28;20060;-79
2022/09/27 11:32:56;;;;;;;8.55;2.78;;;;;;;12.35;79.07;98461.91;5086902;28;20569;-78
2022/09/27 11:35:37;;;;;;;21.60;4.63;;;;;;;12.42;79.08;98458.53;5085880;28;20830;-82
2022/09/27 11:38:27;;;;;;;4.97;2.67;;;;;;;12.30;76.85;98458.97;5073603;28;20052;-82
2022/09/27 11:41:20;;;;;;;3.72;2.40;;;;;;;12.46;78.18;98452.66;5069325;28;20487;-83
2022/09/27 11:44:11;;;;;;;5.93;2.60;;;;;;;12.48;78.01;98441.81;5067349;28;20063;-82
2022/09/27 11:46:39;;;;;;;6.28;2.85;;;;;;;12.53;78.33;98436.78;5040192;28;20035;-82
2022/09/27 11:49:31;;;;;;;6.38;2.58;;;;;;;12.59;77.93;98436.03;5057990;28;20051;-81
2022/09/27 11:52:29;;;;;;;8.90;3.47;;;;;;;12.52;78.59;98443.94;5072511;28;20051;-82
2022/09/27 11:55:10;;;;;;;13.57;4.00;;;;;;;12.60;78.84;98429.72;5057381;28;20458;-82
2022/09/27 11:57:48;;;;;;;5.70;3.28;;;;;;;12.72;79.02;98425.59;5088198;28;20121;-82
2022/09/27 12:00:16;;;;;;;6.63;3.00;;;;;;;12.90;78.59;98419.03;5055640;28;20047;-82
2022/09/27 12:03:12;;;;;;;4.60;2.65;;;;;;;12.93;77.55;98414.19;5076322;28;20046;-82
2022/09/27 12:06:12;;;;;;;5.20;2.70;;;;;;;12.96;78.19;98416.47;5065389;28;20076;-80
2022/09/27 12:09:02;;;;;;;5.28;2.83;;;;;;;12.98;78.58;98409.13;5061595;28;20101;-80
2022/09/27 12:11:38;;;;;;;10.25;3.25;;;;;;;13.08;78.38;98408.84;5070028;28;20048;-80
2022/09/27 12:14:24;;;;;;;6.55;2.92;;;;;;;13.00;78.36;98406.25;5065963;28;20105;-80
2022/09/27 12:16:55;;;;;;;7.28;3.10;;;;;;;13.10;78.93;98398.81;5073488;28;20067;-80
2022/09/27 12:19:27;;;;;;;10.07;2.80;;;;;;;13.08;78.80;98392.84;5051599;28;20466;-80
2022/09/27 12:22:06;;;;;;;8.02;3.25;;;;;;;13.07;79.29;98388.50;5058207;28;20119;-80